createdAt,value
2023-01-08T00:01:05.387Z,0.50
2023-01-08T00:03:32.809Z,0.70
2023-01-08T00:06:03.662Z,0.60
2023-01-08T00:08:31.572Z,0.90
2023-01-08T00:10:59.090Z,0.87
2023-01-08T00:13:27.661Z,0.52
2023-01-08T00:15:55.287Z,0.68
2023-01-08T00:18:22.625Z,1.17
2023-01-08T00:20:50.130Z,0.80
2023-01-08T00:23:19.524Z,0.60
2023-01-08T00:25:46.975Z,1.00
2023-01-08T00:28:15.247Z,1.20
2023-01-08T00:30:43.208Z,1.48
2023-01-08T00:33:10.923Z,1.65
2023-01-08T00:35:39.072Z,1.80
2023-01-08T00:38:06.886Z,1.80
2023-01-08T00:40:35.074Z,2.20
2023-01-08T00:43:02.462Z,2.28
2023-01-08T00:45:29.914Z,2.50
2023-01-08T00:47:57.291Z,2.87
2023-01-08T00:50:24.548Z,2.50
2023-01-08T00:52:51.857Z,3.00
2023-01-08T00:55:19.220Z,2.67
2023-01-08T00:57:46.708Z,3.03
2023-01-08T01:00:16.638Z,3.20
2023-01-08T01:02:44.277Z,3.13
2023-01-08T01:05:15.387Z,3.05
2023-01-08T01:07:43.301Z,3.42
2023-01-08T01:10:11.438Z,3.00
2023-01-08T01:12:39.312Z,2.90
2023-01-08T01:15:08.438Z,2.75
2023-01-08T01:17:36.037Z,1.88
2023-01-08T01:20:03.373Z,1.70
2023-01-08T01:22:30.700Z,1.27
2023-01-08T01:24:58.027Z,1.40
2023-01-08T01:27:26.432Z,1.00
2023-01-08T01:29:54.118Z,0.80
2023-01-08T01:32:21.877Z,1.20
2023-01-08T01:34:49.118Z,0.90
2023-01-08T01:37:16.925Z,0.70
2023-01-08T01:39:44.195Z,0.85
2023-01-08T01:42:34.273Z,0.80
2023-01-08T01:45:01.652Z,0.80
2023-01-08T01:47:28.829Z,0.95
2023-01-08T01:49:58.702Z,1.00
2023-01-08T01:52:27.822Z,1.00
2023-01-08T01:54:55.922Z,0.95
2023-01-08T01:57:23.506Z,1.00
2023-01-08T01:59:50.759Z,1.05
2023-01-08T02:02:18.885Z,0.70
2023-01-08T02:04:47.354Z,1.00
2023-01-08T02:07:17.958Z,1.20
2023-01-08T02:10:03.980Z,0.95
2023-01-08T02:12:43.836Z,0.88
2023-01-08T02:15:11.948Z,1.00
2023-01-08T02:17:45.612Z,0.90
2023-01-08T02:20:18.114Z,0.90
2023-01-08T02:22:49.013Z,0.80
2023-01-08T02:25:32.459Z,0.80
2023-01-08T02:28:01.602Z,1.00
2023-01-08T02:30:29.837Z,0.85
2023-01-08T02:32:57.095Z,0.90
2023-01-08T02:35:24.357Z,1.00
2023-01-08T02:37:51.722Z,1.00
2023-01-08T02:40:23.164Z,1.37
2023-01-08T02:42:50.424Z,1.00
2023-01-08T02:45:26.760Z,1.00
2023-01-08T02:48:15.369Z,1.00
2023-01-08T02:50:49.382Z,1.30
2023-01-08T02:53:29.350Z,1.50
2023-01-08T02:55:59.288Z,1.25
2023-01-08T02:58:27.991Z,1.30
2023-01-08T03:00:55.484Z,1.40
2023-01-08T03:03:24.672Z,1.30
2023-01-08T03:05:55.163Z,1.43
2023-01-08T03:08:24.177Z,1.42
2023-01-08T03:10:57.925Z,1.30
2023-01-08T03:13:27.368Z,1.73
2023-01-08T03:15:57.038Z,1.70
2023-01-08T03:18:27.758Z,1.70
2023-01-08T03:20:55.009Z,1.60
2023-01-08T03:23:23.826Z,2.30
2023-01-08T03:25:51.096Z,2.00
2023-01-08T03:28:21.883Z,2.00
2023-01-08T03:30:50.221Z,1.90
2023-01-08T03:33:18.462Z,2.00
2023-01-08T03:35:48.695Z,2.10
2023-01-08T03:38:21.861Z,2.25
2023-01-08T03:40:51.065Z,2.70
2023-01-08T03:43:18.353Z,2.47
2023-01-08T03:45:49.779Z,2.47
2023-01-08T03:48:18.670Z,2.40
2023-01-08T03:50:46.001Z,2.70
2023-01-08T03:53:13.246Z,2.58
2023-01-08T03:55:40.556Z,2.67
2023-01-08T03:58:07.838Z,2.17
2023-01-08T04:00:35.040Z,1.83
2023-01-08T04:03:04.399Z,2.15
2023-01-08T04:05:33.134Z,1.73
2023-01-08T04:08:00.428Z,1.33
2023-01-08T04:10:27.771Z,1.30
2023-01-08T04:12:54.993Z,1.23
2023-01-08T04:15:22.192Z,0.98
2023-01-08T04:17:49.466Z,0.90
2023-01-08T04:20:16.738Z,0.70
2023-01-08T04:22:44.072Z,0.88
2023-01-08T04:25:12.473Z,0.80
2023-01-08T04:27:39.730Z,1.50
2023-01-08T04:30:07.348Z,0.90
2023-01-08T04:32:34.645Z,0.80
2023-01-08T04:35:01.921Z,0.85
2023-01-08T04:37:29.232Z,0.80
2023-01-08T04:39:56.512Z,0.70
2023-01-08T04:42:23.813Z,0.57
2023-01-08T04:44:51.033Z,0.90
2023-01-08T04:47:18.278Z,0.70
2023-01-08T04:49:45.505Z,0.50
2023-01-08T04:52:12.745Z,0.80
2023-01-08T04:54:39.960Z,0.60
2023-01-08T04:57:07.167Z,0.80
2023-01-08T04:59:34.569Z,0.68
2023-01-08T05:02:01.918Z,0.70
2023-01-08T05:04:29.316Z,0.70
2023-01-08T05:06:56.571Z,0.80
2023-01-08T05:09:23.895Z,0.60
2023-01-08T05:11:51.160Z,0.70
2023-01-08T05:14:18.432Z,0.70
2023-01-08T05:16:45.877Z,0.90
2023-01-08T05:19:13.176Z,1.00
2023-01-08T05:21:40.549Z,1.10
2023-01-08T05:24:09.269Z,0.75
2023-01-08T05:26:36.692Z,1.00
2023-01-08T05:29:03.891Z,0.73
2023-01-08T05:31:31.238Z,1.02
2023-01-08T05:33:59.590Z,0.80
2023-01-08T05:36:26.809Z,0.80
2023-01-08T05:38:54.039Z,0.85
2023-01-08T05:41:21.221Z,0.80
2023-01-08T05:43:48.503Z,0.80
2023-01-08T05:46:15.800Z,0.80
2023-01-08T05:48:43.100Z,0.90
2023-01-08T05:51:10.322Z,1.00
2023-01-08T05:53:37.662Z,1.02
2023-01-08T05:56:08.883Z,1.20
2023-01-08T05:58:36.754Z,0.90
2023-01-08T06:01:05.065Z,1.13
2023-01-08T06:03:32.342Z,1.30
2023-01-08T06:06:02.833Z,1.40
2023-01-08T06:08:30.821Z,1.10
2023-01-08T06:11:01.882Z,1.40
2023-01-08T06:13:29.429Z,1.30
2023-01-08T06:15:59.029Z,1.23
2023-01-08T06:18:26.355Z,1.38
2023-01-08T06:20:53.695Z,1.42
2023-01-08T06:23:20.917Z,1.27
2023-01-08T06:25:55.123Z,1.30
2023-01-08T06:28:22.838Z,1.45
2023-01-08T06:30:50.498Z,1.30
2023-01-08T06:33:20.180Z,1.63
2023-01-08T06:35:48.374Z,1.20
2023-01-08T06:38:15.668Z,1.50
2023-01-08T06:40:42.856Z,1.40
2023-01-08T06:43:10.090Z,1.42
2023-01-08T06:45:37.605Z,2.00
2023-01-08T06:48:06.044Z,1.47
2023-01-08T06:50:34.328Z,1.30
2023-01-08T06:53:01.608Z,1.30
2023-01-08T06:55:28.926Z,1.10
2023-01-08T06:57:57.105Z,1.10
2023-01-08T07:00:26.115Z,0.93
2023-01-08T07:02:53.949Z,1.38
2023-01-08T07:05:21.483Z,1.33
2023-01-08T07:07:48.767Z,1.42
2023-01-08T07:10:17.436Z,1.17
2023-01-08T07:12:45.813Z,1.00
2023-01-08T07:15:13.107Z,1.17
2023-01-08T07:17:40.331Z,1.90
2023-01-08T07:20:07.997Z,1.30
2023-01-08T07:22:35.227Z,1.80
2023-01-08T07:25:02.512Z,1.57
2023-01-08T07:27:29.757Z,1.20
2023-01-08T07:29:56.948Z,1.38
2023-01-08T07:32:26.455Z,1.15
2023-01-08T07:34:54.754Z,1.30
2023-01-08T07:37:22.058Z,2.07
2023-01-08T07:39:49.313Z,1.60
2023-01-08T07:42:16.613Z,1.27
2023-01-08T07:44:43.999Z,1.00
2023-01-08T07:47:11.241Z,0.77
2023-01-08T07:49:38.581Z,1.07
2023-01-08T07:52:05.819Z,1.13
2023-01-08T07:54:32.984Z,0.82
2023-01-08T07:57:00.272Z,0.80
2023-01-08T07:59:27.485Z,1.10
2023-01-08T08:01:54.811Z,1.20
2023-01-08T08:04:22.155Z,1.10
2023-01-08T08:06:49.313Z,1.30
2023-01-08T08:09:16.514Z,1.20
2023-01-08T08:11:43.757Z,1.30
2023-01-08T08:14:11.037Z,1.47
2023-01-08T08:16:38.460Z,1.20
2023-01-08T08:19:05.743Z,0.90
2023-01-08T08:21:33.151Z,1.20
2023-01-08T08:24:00.459Z,1.02
2023-01-08T08:26:28.775Z,0.90
2023-01-08T08:28:56.001Z,0.80
2023-01-08T08:31:23.334Z,0.80
2023-01-08T08:33:50.647Z,1.20
2023-01-08T08:36:17.989Z,0.95
2023-01-08T08:38:45.217Z,1.07
2023-01-08T08:41:12.385Z,1.00
2023-01-08T08:43:39.712Z,1.00
2023-01-08T08:46:06.857Z,1.45
2023-01-08T08:48:34.123Z,1.05
2023-01-08T08:51:01.284Z,1.27
2023-01-08T08:53:28.524Z,1.20
2023-01-08T08:55:55.790Z,1.67
2023-01-08T08:58:23.034Z,1.10
2023-01-08T09:00:50.315Z,1.00
2023-01-08T09:03:17.582Z,1.13
2023-01-08T09:05:45.375Z,0.90
2023-01-08T09:08:13.246Z,0.80
2023-01-08T09:10:42.314Z,1.13
2023-01-08T09:13:09.607Z,1.38
2023-01-08T09:15:38.133Z,1.10
2023-01-08T09:18:05.625Z,1.33
2023-01-08T09:20:32.875Z,1.13
2023-01-08T09:23:00.561Z,1.00
2023-01-08T09:25:27.913Z,1.08
2023-01-08T09:28:01.741Z,1.03
2023-01-08T09:30:29.025Z,1.15
2023-01-08T09:33:02.350Z,1.27
2023-01-08T09:35:30.517Z,1.17
2023-01-08T09:37:57.874Z,1.02
2023-01-08T09:40:26.957Z,0.80
2023-01-08T09:42:58.874Z,1.25
2023-01-08T09:45:29.128Z,0.90
2023-01-08T09:47:57.859Z,1.08
2023-01-08T09:50:27.332Z,1.17
2023-01-08T09:52:54.706Z,0.93
2023-01-08T09:55:22.267Z,1.10
2023-01-08T09:57:49.789Z,1.30
2023-01-08T10:00:19.737Z,0.98
2023-01-08T10:02:47.212Z,1.20
2023-01-08T10:05:16.394Z,1.13
2023-01-08T10:07:44.090Z,1.33
2023-01-08T10:10:26.865Z,1.05
2023-01-08T10:12:54.309Z,1.13
2023-01-08T10:15:22.109Z,1.30
2023-01-08T10:17:56.272Z,1.00
2023-01-08T10:20:24.688Z,1.00
2023-01-08T10:22:56.610Z,1.20
2023-01-08T10:25:25.230Z,1.38
2023-01-08T10:27:53.859Z,1.10
2023-01-08T10:30:34.331Z,1.10
2023-01-08T10:33:11.443Z,1.48
2023-01-08T10:35:39.988Z,0.90
2023-01-08T10:38:07.591Z,1.20
2023-01-08T10:40:39.267Z,1.20
2023-01-08T10:43:09.336Z,1.10
2023-01-08T10:45:36.636Z,1.30
2023-01-08T10:48:06.276Z,1.25
2023-01-08T10:50:34.562Z,1.00
2023-01-08T10:53:02.776Z,1.45
2023-01-08T10:55:39.127Z,1.10
2023-01-08T10:58:06.236Z,1.63
2023-01-08T11:00:35.268Z,1.13
2023-01-08T11:03:03.793Z,1.20
2023-01-08T11:05:32.111Z,0.90
2023-01-08T11:08:00.845Z,1.07
2023-01-08T11:10:29.142Z,1.08
2023-01-08T11:13:00.607Z,1.10
2023-01-08T11:15:35.588Z,1.38
2023-01-08T11:18:22.421Z,0.93
2023-01-08T11:20:50.177Z,0.80
2023-01-08T11:23:24.883Z,0.90
2023-01-08T11:25:55.564Z,1.17
2023-01-08T11:28:27.499Z,0.90
2023-01-08T11:31:00.227Z,0.90
2023-01-08T11:33:31.496Z,0.90
2023-01-08T11:36:05.795Z,1.05
2023-01-08T11:38:33.208Z,1.27
2023-01-08T11:41:12.904Z,1.23
2023-01-08T11:43:46.651Z,1.10
2023-01-08T11:46:26.056Z,1.00
2023-01-08T11:49:02.907Z,1.48
2023-01-08T11:51:42.338Z,1.00
2023-01-08T11:54:22.032Z,1.00
2023-01-08T11:56:52.291Z,1.20
2023-01-08T11:59:30.263Z,1.20
2023-01-08T12:02:00.506Z,1.20
2023-01-08T12:04:49.703Z,1.08
2023-01-08T12:07:29.005Z,0.85
2023-01-08T12:10:05.877Z,1.02
2023-01-08T12:13:05.645Z,0.97
2023-01-08T12:15:49.778Z,1.02
2023-01-08T12:18:35.229Z,1.33
2023-01-08T12:21:21.064Z,1.00
2023-01-08T12:23:56.780Z,1.10
2023-01-08T12:26:46.959Z,1.10
2023-01-08T12:29:18.933Z,1.25
2023-01-08T12:32:06.945Z,1.30
2023-01-08T12:34:48.989Z,1.00
2023-01-08T12:37:19.351Z,1.13
2023-01-08T12:39:56.823Z,0.83
2023-01-08T12:42:28.228Z,1.10
2023-01-08T12:44:55.874Z,0.90
2023-01-08T12:47:26.251Z,0.80
2023-01-08T12:50:07.167Z,1.20
2023-01-08T12:52:43.108Z,1.07
2023-01-08T12:55:29.257Z,1.10
2023-01-08T12:58:08.793Z,0.90
2023-01-08T13:00:40.661Z,1.10
2023-01-08T13:03:14.974Z,2.63
2023-01-08T13:05:43.573Z,1.47
2023-01-08T13:08:26.086Z,1.10
2023-01-08T13:10:56.774Z,1.20
2023-01-08T13:13:26.790Z,0.80
2023-01-08T13:15:54.074Z,0.88
2023-01-08T13:18:21.909Z,0.90
2023-01-08T13:20:59.065Z,0.80
2023-01-08T13:23:27.511Z,0.80
2023-01-08T13:25:56.352Z,1.02
2023-01-08T13:28:27.572Z,1.02
2023-01-08T13:30:58.119Z,0.90
2023-01-08T13:33:27.187Z,0.82
2023-01-08T13:36:14.605Z,1.00
2023-01-08T13:38:42.157Z,0.90
2023-01-08T13:41:32.717Z,0.80
2023-01-08T13:44:15.369Z,0.90
2023-01-08T13:46:44.175Z,0.98
2023-01-08T13:49:20.045Z,1.08
2023-01-08T13:51:47.827Z,1.00
2023-01-08T13:54:14.972Z,0.80
2023-01-08T13:56:42.951Z,0.80
2023-01-08T13:59:25.461Z,0.80
2023-01-08T14:01:53.643Z,1.10
2023-01-08T14:04:21.923Z,0.85
2023-01-08T14:06:49.096Z,1.10
2023-01-08T14:09:24.100Z,0.90
2023-01-08T14:11:53.583Z,0.77
2023-01-08T14:14:21.717Z,0.68
2023-01-08T14:16:49.609Z,0.80
2023-01-08T14:19:18.661Z,0.70
2023-01-08T14:22:04.062Z,0.70
2023-01-08T14:24:31.204Z,0.70
2023-01-08T14:26:59.452Z,0.80
2023-01-08T14:29:29.852Z,0.90
2023-01-08T14:31:58.397Z,0.70
2023-01-08T14:34:26.909Z,0.90
2023-01-08T14:36:55.108Z,0.77
2023-01-08T14:39:22.245Z,1.00
2023-01-08T14:42:08.665Z,0.90
2023-01-08T14:44:39.095Z,0.90
2023-01-08T14:47:16.827Z,0.97
2023-01-08T14:49:44.788Z,1.33
2023-01-08T14:52:13.190Z,1.00
2023-01-08T14:54:40.486Z,1.15
2023-01-08T14:57:07.679Z,0.93
2023-01-08T14:59:39.797Z,0.90
2023-01-08T15:02:09.100Z,0.95
2023-01-08T15:04:36.289Z,0.90
2023-01-08T15:07:17.013Z,0.90
2023-01-08T15:09:44.192Z,0.90
2023-01-08T15:12:24.955Z,1.07
2023-01-08T15:14:55.037Z,1.20
2023-01-08T15:17:23.382Z,1.00
2023-01-08T15:19:52.840Z,0.90
2023-01-08T15:22:21.503Z,7.00
2023-01-08T15:25:00.249Z,1.23
2023-01-08T15:27:27.563Z,1.83
2023-01-08T15:30:03.732Z,1.10
2023-01-08T15:32:32.520Z,1.00
2023-01-08T15:34:59.702Z,1.02
2023-01-08T15:37:27.247Z,1.07
2023-01-08T15:39:54.493Z,1.08
2023-01-08T15:42:40.179Z,1.10
2023-01-08T15:45:10.613Z,1.20
2023-01-08T15:47:37.795Z,1.23
2023-01-08T15:50:05.227Z,1.40
2023-01-08T15:52:32.960Z,1.00
2023-01-08T15:55:00.688Z,1.10
2023-01-08T15:57:30.326Z,1.00
2023-01-08T15:59:57.790Z,1.10
2023-01-08T16:02:25.669Z,1.20
2023-01-08T16:04:53.717Z,1.17
2023-01-08T16:07:21.176Z,1.40
2023-01-08T16:09:48.623Z,1.27
2023-01-08T16:12:15.749Z,1.38
2023-01-08T16:14:42.895Z,1.30
2023-01-08T16:17:10.171Z,1.42
2023-01-08T16:19:37.349Z,1.10
2023-01-08T16:22:04.692Z,1.65
2023-01-08T16:24:32.036Z,1.60
2023-01-08T16:26:59.443Z,1.30
2023-01-08T16:29:27.891Z,1.42
2023-01-08T16:31:55.815Z,1.40
2023-01-08T16:34:23.042Z,1.45
2023-01-08T16:36:50.205Z,1.23
2023-01-08T16:39:17.542Z,1.70
2023-01-08T16:41:44.733Z,1.73
2023-01-08T16:44:31.199Z,1.33
2023-01-08T16:46:58.627Z,1.25
2023-01-08T16:49:25.761Z,1.67
2023-01-08T16:51:52.929Z,1.60
2023-01-08T16:54:20.166Z,1.77
2023-01-08T16:56:47.385Z,1.50
2023-01-08T16:59:22.680Z,1.73
2023-01-08T17:01:50.298Z,1.10
2023-01-08T17:04:17.577Z,1.00
2023-01-08T17:06:44.784Z,1.42
2023-01-08T17:09:12.015Z,1.45
2023-01-08T17:11:39.304Z,1.40
2023-01-08T17:14:06.501Z,1.00
2023-01-08T17:16:33.738Z,0.70
2023-01-08T17:19:01.138Z,1.20
2023-01-08T17:21:28.311Z,1.23
2023-01-08T17:23:55.463Z,1.45
2023-01-08T17:26:22.661Z,1.25
2023-01-08T17:28:49.821Z,0.90
2023-01-08T17:31:18.794Z,1.15
2023-01-08T17:33:50.075Z,1.40
2023-01-08T17:36:22.151Z,1.25
2023-01-08T17:38:50.603Z,1.30
2023-01-08T17:41:36.992Z,0.80
2023-01-08T17:44:06.824Z,1.30
2023-01-08T17:46:39.658Z,1.00
2023-01-08T17:49:06.850Z,1.05
2023-01-08T17:51:34.028Z,1.10
2023-01-08T17:54:01.744Z,1.00
2023-01-08T17:56:28.873Z,1.00
2023-01-08T17:58:56.064Z,1.35
2023-01-08T18:01:23.456Z,1.20
2023-01-08T18:03:50.745Z,0.85
2023-01-08T18:06:17.922Z,1.20
2023-01-08T18:08:45.166Z,1.20
2023-01-08T18:11:12.467Z,1.15
2023-01-08T18:13:39.604Z,1.10
2023-01-08T18:16:11.408Z,1.00
2023-01-08T18:18:38.961Z,0.90
2023-01-08T18:21:06.376Z,1.02
2023-01-08T18:23:33.559Z,1.00
2023-01-08T18:26:04.554Z,1.10
2023-01-08T18:28:31.838Z,1.20
2023-01-08T18:30:58.953Z,1.17
2023-01-08T18:33:26.161Z,0.88
2023-01-08T18:35:53.374Z,1.00
2023-01-08T18:38:20.568Z,1.25
2023-01-08T18:40:48.511Z,0.95
2023-01-08T18:43:15.715Z,1.10
2023-01-08T18:45:42.907Z,1.30
2023-01-08T18:48:10.131Z,1.10
2023-01-08T18:50:40.899Z,1.00
2023-01-08T18:53:08.661Z,1.17
2023-01-08T18:55:36.709Z,1.20
2023-01-08T18:58:04.693Z,0.90
2023-01-08T19:00:31.958Z,1.20
2023-01-08T19:02:59.210Z,1.30
2023-01-08T19:05:26.409Z,1.20
2023-01-08T19:07:53.572Z,1.00
2023-01-08T19:10:21.945Z,1.00
2023-01-08T19:12:50.725Z,1.02
2023-01-08T19:15:18.013Z,1.10
2023-01-08T19:17:45.339Z,1.10
2023-01-08T19:20:12.675Z,1.07
2023-01-08T19:22:39.918Z,1.00
2023-01-08T19:25:07.413Z,1.13
2023-01-08T19:27:35.814Z,1.20
2023-01-08T19:30:04.207Z,0.98
2023-01-08T19:32:31.317Z,1.00
2023-01-08T19:34:58.542Z,1.20
2023-01-08T19:37:26.503Z,0.90
2023-01-08T19:39:53.771Z,1.30
2023-01-08T19:42:39.518Z,1.10
2023-01-08T19:45:06.907Z,0.80
2023-01-08T19:47:34.062Z,0.90
2023-01-08T19:50:01.221Z,1.30
2023-01-08T19:52:28.367Z,1.30
2023-01-08T19:54:57.095Z,1.00
2023-01-08T19:57:24.332Z,1.20
2023-01-08T19:59:51.636Z,0.90
2023-01-08T20:02:18.934Z,1.05
2023-01-08T20:04:46.156Z,1.08
2023-01-08T20:07:13.877Z,1.90
2023-01-08T20:09:44.322Z,1.50
2023-01-08T20:12:11.924Z,1.30
2023-01-08T20:14:39.154Z,1.30
2023-01-08T20:17:06.263Z,1.25
2023-01-08T20:19:34.378Z,1.10
2023-01-08T20:22:01.539Z,0.90
2023-01-08T20:24:29.933Z,1.20
2023-01-08T20:26:57.167Z,1.40
2023-01-08T20:29:24.411Z,1.00
2023-01-08T20:31:56.855Z,1.40
2023-01-08T20:34:24.822Z,1.07
2023-01-08T20:36:51.999Z,1.05
2023-01-08T20:39:19.612Z,1.15
2023-01-08T20:42:00.856Z,1.00
2023-01-08T20:44:31.061Z,1.15
2023-01-08T20:46:58.231Z,1.00
2023-01-08T20:49:26.729Z,1.08
2023-01-08T20:51:59.165Z,1.40
2023-01-08T20:54:27.677Z,1.00
2023-01-08T20:56:58.523Z,1.00
2023-01-08T20:59:26.096Z,1.10
2023-01-08T21:01:53.483Z,0.90
2023-01-08T21:04:20.807Z,1.30
2023-01-08T21:06:48.143Z,1.10
2023-01-08T21:09:16.576Z,1.50
2023-01-08T21:11:43.815Z,1.07
2023-01-08T21:14:11.214Z,1.50
2023-01-08T21:16:40.410Z,1.30
2023-01-08T21:19:10.193Z,1.30
2023-01-08T21:21:40.334Z,1.20
2023-01-08T21:24:09.216Z,1.63
2023-01-08T21:26:39.848Z,1.58
2023-01-08T21:29:07.791Z,1.45
2023-01-08T21:31:35.714Z,1.70
2023-01-08T21:34:03.647Z,1.30
2023-01-08T21:36:31.741Z,1.33
2023-01-08T21:39:00.205Z,1.35
2023-01-08T21:41:47.160Z,1.30
2023-01-08T21:44:34.798Z,1.13
2023-01-08T21:47:02.770Z,1.33
2023-01-08T21:49:31.717Z,1.20
2023-01-08T21:52:17.802Z,1.25
2023-01-08T21:54:45.018Z,1.20
2023-01-08T21:57:12.224Z,1.13
2023-01-08T21:59:39.462Z,1.30
2023-01-08T22:02:07.020Z,0.97
2023-01-08T22:04:34.355Z,1.20
2023-01-08T22:07:01.483Z,1.25
2023-01-08T22:09:28.679Z,1.40
2023-01-08T22:11:56.142Z,1.25
2023-01-08T22:14:23.633Z,1.20
2023-01-08T22:16:50.847Z,2.13
2023-01-08T22:19:18.205Z,2.17
2023-01-08T22:21:45.838Z,1.92
2023-01-08T22:24:13.364Z,1.45
2023-01-08T22:26:40.649Z,1.80
2023-01-08T22:29:08.019Z,1.83
2023-01-08T22:31:35.502Z,1.80
2023-01-08T22:34:02.816Z,1.42
2023-01-08T22:36:30.091Z,1.50
2023-01-08T22:38:57.444Z,2.00
2023-01-08T22:41:25.455Z,1.80
2023-01-08T22:43:56.853Z,1.65
2023-01-08T22:46:25.248Z,1.70
2023-01-08T22:48:52.993Z,1.60
2023-01-08T22:51:29.288Z,1.70
2023-01-08T22:53:57.495Z,1.20
2023-01-08T22:56:25.409Z,1.30
2023-01-08T22:58:53.688Z,1.17
2023-01-08T23:01:22.846Z,1.30
2023-01-08T23:03:51.024Z,1.20
2023-01-08T23:06:19.117Z,1.00
2023-01-08T23:08:46.901Z,0.80
2023-01-08T23:11:15.326Z,1.10
2023-01-08T23:13:43.132Z,0.80
2023-01-08T23:16:11.664Z,0.87
2023-01-08T23:18:39.460Z,0.63
2023-01-08T23:21:11.045Z,0.70
2023-01-08T23:23:38.655Z,0.82
2023-01-08T23:26:12.709Z,0.77
2023-01-08T23:28:40.641Z,0.70
2023-01-08T23:31:11.822Z,0.60
2023-01-08T23:33:39.178Z,0.80
2023-01-08T23:36:06.649Z,0.75
2023-01-08T23:38:33.920Z,0.70
2023-01-08T23:41:01.439Z,0.87
2023-01-08T23:43:28.765Z,1.00
2023-01-08T23:45:56.225Z,0.88
2023-01-08T23:48:23.546Z,0.90
2023-01-08T23:50:50.777Z,0.77
2023-01-08T23:53:18.056Z,0.90
2023-01-08T23:55:45.405Z,0.70
2023-01-08T23:58:12.669Z,0.90
